La Grange, Texas
Current Conditions -  °F | °C
As of 2:10 AM on Thursday 27 Nov 2014 (Local Time) from K3T5 Reporting Station
Clear Clear  
Wind Chill: 49°   Ceiling: Unl
Heat Index: 49°   Visibility: 10mi
Dew Point: 39°   Wind: 0mph
Humidity: 67%   Direction: NA
Pressure: 30.37"   Gusts: NA
Location:  29.91°N, 96.88°W
Report Text: K3T5 270810Z AUTO 00000KT 10SM CLR 10/04 A3037 RMK AO2 T00960037
Loading
Personal Weather Stations






























Interactive Weather Map New forecast layout! Learn more

10-Day Weather Forecast

Advertisements
Track Severe Weather on mobile